createdAt,value
2018-08-10T00:00:33.586Z,7.15
2018-08-10T00:03:01.760Z,6.93
2018-08-10T00:05:29.931Z,7.97
2018-08-10T00:07:58.071Z,8.10
2018-08-10T00:10:26.160Z,8.73
2018-08-10T00:12:54.295Z,9.27
2018-08-10T00:15:22.558Z,8.63
2018-08-10T00:17:50.722Z,8.77
2018-08-10T00:20:18.908Z,9.63
2018-08-10T00:22:46.994Z,9.40
2018-08-10T00:25:16.999Z,9.50
2018-08-10T00:27:45.125Z,10.40
2018-08-10T00:30:15.104Z,9.70
2018-08-10T00:32:44.803Z,10.87
2018-08-10T00:35:13.020Z,10.78
2018-08-10T00:37:41.928Z,11.18
2018-08-10T00:40:20.283Z,10.30
2018-08-10T00:42:48.444Z,10.90
2018-08-10T00:45:20.950Z,9.57
2018-08-10T00:47:49.448Z,9.20
2018-08-10T00:50:18.138Z,10.18
2018-08-10T00:52:46.928Z,10.05
2018-08-10T00:55:16.138Z,9.48
2018-08-10T00:57:44.826Z,8.05
2018-08-10T01:00:21.324Z,8.70
2018-08-10T01:02:49.539Z,7.90
2018-08-10T01:05:17.654Z,7.83
2018-08-10T01:07:45.794Z,8.73
2018-08-10T01:10:15.969Z,8.65
2018-08-10T01:12:44.124Z,7.33
2018-08-10T01:15:13.911Z,8.67
2018-08-10T01:17:42.204Z,7.00
2018-08-10T01:20:12.880Z,8.20
2018-08-10T01:22:47.026Z,8.30
2018-08-10T01:25:15.134Z,7.20
2018-08-10T01:27:48.749Z,7.87
2018-08-10T01:30:16.843Z,7.40
2018-08-10T01:32:45.140Z,7.80
2018-08-10T01:35:13.336Z,7.40
2018-08-10T01:37:41.429Z,7.78
2018-08-10T01:40:09.579Z,7.00
2018-08-10T01:42:37.724Z,6.87
2018-08-10T01:45:06.699Z,6.30
2018-08-10T01:47:35.003Z,7.70
2018-08-10T01:50:03.123Z,6.90
2018-08-10T01:52:31.256Z,6.97
2018-08-10T01:54:59.375Z,6.90
2018-08-10T01:57:27.521Z,7.73
2018-08-10T01:59:55.651Z,5.33
2018-08-10T02:02:23.805Z,5.87
2018-08-10T02:04:51.924Z,6.30
2018-08-10T02:07:20.032Z,6.27
2018-08-10T02:09:48.177Z,6.50
2018-08-10T02:12:16.299Z,5.67
2018-08-10T02:14:44.445Z,5.53
2018-08-10T02:17:12.667Z,5.90
2018-08-10T02:19:40.786Z,6.00
2018-08-10T02:22:08.903Z,6.00
2018-08-10T02:24:37.098Z,5.37
2018-08-10T02:27:05.237Z,4.60
2018-08-10T02:29:33.355Z,5.00
2018-08-10T02:32:01.479Z,4.85
2018-08-10T02:34:29.608Z,3.17
2018-08-10T02:36:57.758Z,4.25
2018-08-10T02:39:25.936Z,3.60
2018-08-10T02:41:54.105Z,3.35
2018-08-10T02:44:22.214Z,4.30
2018-08-10T02:46:50.344Z,4.20
2018-08-10T02:49:18.464Z,3.23
2018-08-10T02:51:46.548Z,2.70
2018-08-10T02:54:14.656Z,3.63
2018-08-10T02:56:42.808Z,2.80
2018-08-10T02:59:10.852Z,4.00
2018-08-10T03:01:38.937Z,4.17
2018-08-10T03:04:07.064Z,3.20
2018-08-10T03:06:35.153Z,4.27
2018-08-10T03:09:03.288Z,3.10
2018-08-10T03:11:31.379Z,3.67
2018-08-10T03:13:59.871Z,3.60
2018-08-10T03:16:28.051Z,3.27
2018-08-10T03:18:56.259Z,3.03
2018-08-10T03:21:24.328Z,2.87
2018-08-10T03:23:52.452Z,2.70
2018-08-10T03:26:20.548Z,2.77
2018-08-10T03:28:48.701Z,3.03
2018-08-10T03:31:16.771Z,3.20
2018-08-10T03:33:44.882Z,3.10
2018-08-10T03:36:13.004Z,3.23
2018-08-10T03:38:41.127Z,4.60
2018-08-10T03:41:09.252Z,3.30
2018-08-10T03:43:37.391Z,2.70
2018-08-10T03:46:05.564Z,4.17
2018-08-10T03:48:33.641Z,2.20
2018-08-10T03:51:01.748Z,2.23
2018-08-10T03:53:29.864Z,2.75
2018-08-10T03:55:57.973Z,5.20
2018-08-10T03:58:26.139Z,2.23
2018-08-10T04:00:54.331Z,2.37
2018-08-10T04:03:22.463Z,2.10
2018-08-10T04:05:50.593Z,2.07
2018-08-10T04:08:18.698Z,2.33
2018-08-10T04:10:46.819Z,3.83
2018-08-10T04:13:15.341Z,1.88
2018-08-10T04:15:43.459Z,2.37
2018-08-10T04:18:12.170Z,3.22
2018-08-10T04:20:40.289Z,1.95
2018-08-10T04:23:09.478Z,3.08
2018-08-10T04:25:37.667Z,2.10
2018-08-10T04:28:05.993Z,1.87
2018-08-10T04:30:34.122Z,4.15
2018-08-10T04:33:02.276Z,2.10
2018-08-10T04:35:30.485Z,3.67
2018-08-10T04:37:58.620Z,1.40
2018-08-10T04:40:26.742Z,1.83
2018-08-10T04:42:54.885Z,2.47
2018-08-10T04:45:23.027Z,1.57
2018-08-10T04:47:51.175Z,2.00
2018-08-10T04:50:19.497Z,3.40
2018-08-10T04:52:47.688Z,1.67
2018-08-10T04:55:15.848Z,3.42
2018-08-10T04:57:44.001Z,1.33
2018-08-10T05:00:13.953Z,1.52
2018-08-10T05:02:42.089Z,1.87
2018-08-10T05:05:11.074Z,4.10
2018-08-10T05:07:40.165Z,3.30
2018-08-10T05:10:08.489Z,2.77
2018-08-10T05:12:36.989Z,1.30
2018-08-10T05:15:05.875Z,3.33
2018-08-10T05:17:34.012Z,4.40
2018-08-10T05:20:02.198Z,1.43
2018-08-10T05:22:30.311Z,4.35
2018-08-10T05:24:59.247Z,2.67
2018-08-10T05:27:27.369Z,5.50
2018-08-10T05:29:55.568Z,5.10
2018-08-10T05:32:23.971Z,4.60
2018-08-10T05:34:52.227Z,2.37
2018-08-10T05:37:20.534Z,2.37
2018-08-10T05:39:48.615Z,3.13
2018-08-10T05:42:16.896Z,2.30
2018-08-10T05:44:45.092Z,2.57
2018-08-10T05:47:13.976Z,8.73
2018-08-10T05:49:42.108Z,3.77
2018-08-10T05:52:10.230Z,5.70
2018-08-10T05:54:38.486Z,5.13
2018-08-10T05:57:06.746Z,4.70
2018-08-10T05:59:34.950Z,6.17
2018-08-10T06:02:03.124Z,2.20
2018-08-10T06:04:31.487Z,3.20
2018-08-10T06:07:00.466Z,4.33
2018-08-10T06:09:28.613Z,3.37
2018-08-10T06:11:56.807Z,2.72
2018-08-10T06:14:24.972Z,4.75
2018-08-10T06:16:53.133Z,1.42
2018-08-10T06:19:21.267Z,1.52
2018-08-10T06:21:49.441Z,2.40
2018-08-10T06:24:17.566Z,1.43
2018-08-10T06:26:45.664Z,2.77
2018-08-10T06:29:13.792Z,1.37
2018-08-10T06:31:41.952Z,1.10
2018-08-10T06:34:10.242Z,4.20
2018-08-10T06:36:38.338Z,3.80
2018-08-10T06:53:49.538Z,2.02
2018-08-10T06:56:17.691Z,2.23
2018-08-10T06:58:45.835Z,2.90
2018-08-10T07:01:14.013Z,1.90
2018-08-10T07:03:42.134Z,2.07
2018-08-10T07:06:10.262Z,1.60
2018-08-10T07:08:38.448Z,3.90
2018-08-10T07:11:06.579Z,2.20
2018-08-10T07:13:34.768Z,1.63
2018-08-10T07:16:02.937Z,1.50
2018-08-10T07:18:31.113Z,3.60
2018-08-10T07:20:59.206Z,2.30
2018-08-10T07:23:27.347Z,1.83
2018-08-10T07:25:55.543Z,1.63
2018-08-10T07:28:23.683Z,2.93
2018-08-10T07:30:51.774Z,1.33
2018-08-10T07:33:19.875Z,3.60
2018-08-10T07:35:48.017Z,1.23
2018-08-10T07:38:16.183Z,4.33
2018-08-10T07:40:44.366Z,5.40
2018-08-10T07:43:13.352Z,2.40
2018-08-10T07:45:41.520Z,2.37
2018-08-10T07:48:09.610Z,2.10
2018-08-10T07:50:37.944Z,3.17
2018-08-10T07:53:06.404Z,4.30
2018-08-10T07:55:34.540Z,3.60
2018-08-10T07:58:02.686Z,5.07
2018-08-10T08:00:30.789Z,3.33
2018-08-10T08:02:58.912Z,3.00
2018-08-10T08:05:27.038Z,4.20
2018-08-10T08:07:55.180Z,4.60
2018-08-10T08:10:24.515Z,4.40
2018-08-10T08:12:52.601Z,1.80
2018-08-10T08:15:20.732Z,4.12
2018-08-10T08:17:48.892Z,3.37
2018-08-10T08:20:19.101Z,3.40
2018-08-10T08:25:41.590Z,2.60
2018-08-10T08:28:09.722Z,5.50
2018-08-10T08:30:37.852Z,4.50
2018-08-10T08:33:05.986Z,1.97
2018-08-10T08:35:34.091Z,1.90
2018-08-10T08:38:17.461Z,2.67
2018-08-10T08:40:49.212Z,7.03
2018-08-10T08:44:34.611Z,2.42
2018-08-10T08:47:04.156Z,3.43
2018-08-10T08:49:32.315Z,2.03
2018-08-10T08:52:00.432Z,1.87
2018-08-10T08:55:06.641Z,3.00
2018-08-10T08:57:35.620Z,2.20
2018-08-10T09:00:08.751Z,3.23
2018-08-10T09:02:36.883Z,2.57
2018-08-10T09:05:09.176Z,2.10
2018-08-10T09:07:37.811Z,1.33
2018-08-10T09:10:10.898Z,3.40
2018-08-10T09:12:38.979Z,5.60
2018-08-10T09:15:09.106Z,2.43
2018-08-10T09:17:37.353Z,1.77
2018-08-10T09:20:07.439Z,3.03
2018-08-10T09:22:35.583Z,1.80
2018-08-10T09:25:04.737Z,1.40
2018-08-10T09:27:32.876Z,6.10
2018-08-10T09:30:00.984Z,1.57
2018-08-10T09:32:29.128Z,2.97
2018-08-10T09:34:57.267Z,2.93
2018-08-10T09:37:25.432Z,4.60
2018-08-10T09:39:54.426Z,2.20
2018-08-10T09:42:22.538Z,3.03
2018-08-10T09:44:50.655Z,3.13
2018-08-10T09:47:18.773Z,1.57
2018-08-10T09:49:48.038Z,2.83
2018-08-10T09:52:16.242Z,1.30
2018-08-10T09:55:24.538Z,3.07
2018-08-10T09:57:53.993Z,1.73
2018-08-10T10:00:27.500Z,2.63
2018-08-10T10:03:00.866Z,1.93
2018-08-10T10:05:29.046Z,2.70
2018-08-10T10:07:57.147Z,3.93
2018-08-10T10:10:25.374Z,1.57
2018-08-10T10:12:53.859Z,1.90
2018-08-10T10:15:22.439Z,1.57
2018-08-10T10:17:50.635Z,2.10
2018-08-10T10:20:18.760Z,4.50
2018-08-10T10:22:47.703Z,1.67
2018-08-10T10:25:15.812Z,4.27
2018-08-10T10:27:43.912Z,3.57
2018-08-10T10:30:12.010Z,5.60
2018-08-10T10:32:40.170Z,2.93
2018-08-10T10:35:08.242Z,1.70
2018-08-10T10:37:36.340Z,2.00
2018-08-10T10:40:05.362Z,2.00
2018-08-10T10:42:33.483Z,1.93
2018-08-10T10:45:01.638Z,6.63
2018-08-10T10:47:29.837Z,1.43
2018-08-10T10:49:57.876Z,2.50
2018-08-10T10:52:25.966Z,2.87
2018-08-10T10:54:54.120Z,5.10
2018-08-10T10:57:22.401Z,1.10
2018-08-10T10:59:50.545Z,4.62
2018-08-10T11:02:18.681Z,2.75
2018-08-10T11:04:46.819Z,1.70
2018-08-10T11:07:14.966Z,2.47
2018-08-10T11:09:43.116Z,2.37
2018-08-10T11:12:11.267Z,1.87
2018-08-10T11:14:39.420Z,4.10
2018-08-10T11:17:07.592Z,1.33
2018-08-10T11:19:35.683Z,1.60
2018-08-10T11:22:03.841Z,1.53
2018-08-10T11:24:31.996Z,3.10
2018-08-10T11:27:00.111Z,1.93
2018-08-10T11:29:28.230Z,1.00
2018-08-10T11:31:56.392Z,1.73
2018-08-10T11:34:24.507Z,2.30
2018-08-10T11:36:52.654Z,1.37
2018-08-10T11:39:20.740Z,2.77
2018-08-10T11:41:48.878Z,2.03
2018-08-10T11:44:16.994Z,3.67
2018-08-10T11:46:45.112Z,2.83
2018-08-10T11:49:13.309Z,2.57
2018-08-10T11:51:41.436Z,2.87
2018-08-10T11:54:09.528Z,1.80
2018-08-10T11:56:37.718Z,2.90
2018-08-10T11:59:05.873Z,3.03
2018-08-10T12:01:34.009Z,6.50
2018-08-10T12:04:02.160Z,3.43
2018-08-10T12:06:30.287Z,4.07
2018-08-10T12:08:58.377Z,3.13
2018-08-10T12:11:26.485Z,7.23
2018-08-10T12:13:54.607Z,3.70
2018-08-10T12:16:22.715Z,3.23
2018-08-10T12:18:50.788Z,3.37
2018-08-10T12:21:21.686Z,2.10
2018-08-10T12:23:49.851Z,5.07
2018-08-10T12:26:18.001Z,2.30
2018-08-10T12:28:46.117Z,4.70
2018-08-10T12:31:14.227Z,2.00
2018-08-10T12:33:42.362Z,2.47
2018-08-10T12:36:10.545Z,1.93
2018-08-10T12:38:39.309Z,2.33
2018-08-10T12:41:07.423Z,3.13
2018-08-10T12:43:35.578Z,2.33
2018-08-10T12:46:03.725Z,2.43
2018-08-10T12:48:31.832Z,2.80
2018-08-10T12:50:59.964Z,7.17
2018-08-10T12:53:28.173Z,2.36
2018-08-10T12:55:56.344Z,2.47
2018-08-10T12:58:24.499Z,2.97
2018-08-10T13:00:52.615Z,3.30
2018-08-10T13:03:20.749Z,3.17
2018-08-10T13:05:48.896Z,4.03
2018-08-10T13:08:17.058Z,2.17
2018-08-10T13:10:45.240Z,1.93
2018-08-10T13:13:13.352Z,2.60
2018-08-10T13:15:41.516Z,3.90
2018-08-10T13:18:09.902Z,1.43
2018-08-10T13:20:38.057Z,3.13
2018-08-10T13:23:06.205Z,3.23
2018-08-10T13:25:34.368Z,3.80
2018-08-10T13:28:02.511Z,3.50
2018-08-10T13:30:30.643Z,5.20
2018-08-10T13:32:58.795Z,7.83
2018-08-10T13:35:26.968Z,1.90
2018-08-10T13:37:55.310Z,1.83
2018-08-10T13:40:23.437Z,2.03
2018-08-10T13:42:51.520Z,1.90
2018-08-10T13:45:19.671Z,6.40
2018-08-10T13:47:47.823Z,7.53
2018-08-10T13:50:16.726Z,2.80
2018-08-10T13:52:45.380Z,2.90
2018-08-10T13:55:23.017Z,2.67
2018-08-10T13:57:51.231Z,4.13
2018-08-10T14:00:23.415Z,2.83
2018-08-10T14:02:53.156Z,2.60
2018-08-10T14:05:21.906Z,1.93
2018-08-10T14:07:50.361Z,2.60
2018-08-10T14:10:18.522Z,1.70
2018-08-10T14:12:46.808Z,1.80
2018-08-10T14:15:14.998Z,2.40
2018-08-10T14:17:43.321Z,3.07
2018-08-10T14:20:14.095Z,3.57
2018-08-10T14:22:42.277Z,2.20
2018-08-10T14:25:11.107Z,2.93
2018-08-10T14:27:39.346Z,2.00
2018-08-10T14:30:10.135Z,4.07
2018-08-10T14:32:38.563Z,5.60
2018-08-10T14:35:06.961Z,8.00
2018-08-10T14:37:36.072Z,2.33
2018-08-10T14:40:04.850Z,3.87
2018-08-10T14:42:33.050Z,2.30
2018-08-10T14:45:01.269Z,1.70
2018-08-10T14:47:29.405Z,3.27
2018-08-10T14:49:57.535Z,2.33
2018-08-10T14:52:25.627Z,2.10
2018-08-10T14:54:53.776Z,2.47
2018-08-10T14:57:21.884Z,2.17
2018-08-10T14:59:50.077Z,2.17
2018-08-10T15:02:18.218Z,1.90
2018-08-10T15:04:46.592Z,2.00
2018-08-10T15:07:15.828Z,2.50
2018-08-10T15:09:44.049Z,2.30
2018-08-10T15:12:12.385Z,1.30
2018-08-10T15:15:17.540Z,2.10
2018-08-10T15:17:46.128Z,1.67
2018-08-10T15:20:18.031Z,1.47
2018-08-10T15:22:46.409Z,1.92
2018-08-10T15:25:14.534Z,1.50
2018-08-10T15:27:43.339Z,1.77
2018-08-10T15:30:13.779Z,1.80
2018-08-10T15:32:42.253Z,3.00
2018-08-10T15:35:11.113Z,1.33
2018-08-10T15:37:39.219Z,1.63
2018-08-10T15:40:10.423Z,1.40
2018-08-10T15:42:38.768Z,1.40
2018-08-10T15:45:09.520Z,4.17
2018-08-10T15:47:37.668Z,1.60
2018-08-10T15:50:06.314Z,2.10
2018-08-10T15:52:34.428Z,1.50
2018-08-10T15:55:02.535Z,1.85
2018-08-10T15:57:30.603Z,2.60
2018-08-10T15:59:59.388Z,3.33
2018-08-10T16:02:27.569Z,3.87
2018-08-10T16:04:55.751Z,3.53
2018-08-10T16:07:30.663Z,2.27
2018-08-10T16:09:59.695Z,2.70
2018-08-10T16:12:29.230Z,2.97
2018-08-10T16:14:57.459Z,2.73
2018-08-10T16:17:25.729Z,2.00
2018-08-10T16:19:53.916Z,2.80
2018-08-10T16:22:22.062Z,2.30
2018-08-10T16:24:50.155Z,3.08
2018-08-10T16:27:18.266Z,4.30
2018-08-10T16:29:46.347Z,2.50
2018-08-10T16:32:14.451Z,2.70
2018-08-10T16:34:42.536Z,2.72
2018-08-10T16:37:10.615Z,2.20
2018-08-10T16:39:38.767Z,2.93
2018-08-10T16:42:06.849Z,2.27
2018-08-10T16:44:35.020Z,2.80
2018-08-10T16:47:03.044Z,4.17
2018-08-10T16:49:31.119Z,2.57
2018-08-10T16:51:59.247Z,3.27
2018-08-10T16:54:27.384Z,3.22
2018-08-10T16:56:55.545Z,5.40
2018-08-10T16:59:23.677Z,3.83
2018-08-10T17:01:51.773Z,2.37
2018-08-10T17:04:19.883Z,2.93
2018-08-10T17:06:47.976Z,2.60
2018-08-10T17:09:16.082Z,2.83
2018-08-10T17:11:44.253Z,2.80
2018-08-10T17:14:12.413Z,2.93
2018-08-10T17:16:40.505Z,2.87
2018-08-10T17:19:08.661Z,2.93
2018-08-10T17:21:36.760Z,2.53
2018-08-10T17:24:04.858Z,5.20
2018-08-10T17:26:33.011Z,1.87
2018-08-10T17:29:01.112Z,2.70
2018-08-10T17:31:29.276Z,2.83
2018-08-10T17:33:57.885Z,3.00
2018-08-10T17:36:26.158Z,2.45
2018-08-10T17:38:54.276Z,4.62
2018-08-10T17:41:22.402Z,2.95
2018-08-10T17:43:50.513Z,2.27
2018-08-10T17:46:19.303Z,4.10
2018-08-10T17:48:47.430Z,2.58
2018-08-10T17:51:15.499Z,4.03
2018-08-10T17:53:43.679Z,4.00
2018-08-10T17:56:11.780Z,2.25
2018-08-10T17:58:39.945Z,2.40
2018-08-10T18:01:07.991Z,10.15
2018-08-10T18:03:36.113Z,2.23
2018-08-10T18:06:04.351Z,3.03
2018-08-10T18:08:32.437Z,4.28
2018-08-10T18:11:00.524Z,2.10
2018-08-10T18:13:28.615Z,3.50
2018-08-10T18:15:56.678Z,2.10
2018-08-10T18:18:24.765Z,2.57
2018-08-10T18:20:52.916Z,2.70
2018-08-10T18:23:21.122Z,2.33
2018-08-10T18:25:49.228Z,2.40
2018-08-10T18:28:17.361Z,2.53
2018-08-10T18:30:45.494Z,2.50
2018-08-10T18:33:13.600Z,2.17
2018-08-10T18:35:41.704Z,3.27
2018-08-10T18:38:09.818Z,3.00
2018-08-10T18:40:37.936Z,2.87
2018-08-10T18:43:06.202Z,7.03
2018-08-10T18:45:34.932Z,2.50
2018-08-10T18:48:03.047Z,3.43
2018-08-10T18:50:31.215Z,2.50
2018-08-10T18:52:59.247Z,2.20
2018-08-10T18:55:27.346Z,2.40
2018-08-10T18:57:55.450Z,2.90
2018-08-10T19:00:25.235Z,1.90
2018-08-10T19:02:53.591Z,2.85
2018-08-10T19:05:21.725Z,2.70
2018-08-10T19:07:50.114Z,4.35
2018-08-10T19:10:22.082Z,2.93
2018-08-10T19:12:50.183Z,2.30
2018-08-10T19:15:18.344Z,2.43
2018-08-10T19:17:46.487Z,4.97
2018-08-10T19:20:15.131Z,2.60
2018-08-10T19:22:43.255Z,2.47
2018-08-10T19:25:12.445Z,4.37
2018-08-10T19:27:40.535Z,3.83
2018-08-10T19:30:12.650Z,2.67
2018-08-10T19:32:40.833Z,2.95
2018-08-10T19:35:09.711Z,5.00
2018-08-10T19:37:38.318Z,3.83
2018-08-10T19:40:08.110Z,4.85
2018-08-10T19:42:36.385Z,2.90
2018-08-10T19:45:05.863Z,3.23
2018-08-10T19:47:34.098Z,2.97
2018-08-10T19:50:02.203Z,3.13
2018-08-10T19:52:30.480Z,4.23
2018-08-10T19:54:58.656Z,2.80
2018-08-10T19:57:26.749Z,3.30
2018-08-10T19:59:54.882Z,3.17
2018-08-10T20:02:22.974Z,3.70
2018-08-10T20:04:51.120Z,5.23
2018-08-10T20:07:19.226Z,5.50
2018-08-10T20:09:47.320Z,3.47
2018-08-10T20:12:15.396Z,3.40
2018-08-10T20:14:44.072Z,3.40
2018-08-10T20:17:12.648Z,3.22
2018-08-10T20:19:40.736Z,3.53
2018-08-10T20:22:13.600Z,4.00
2018-08-10T20:24:41.741Z,3.53
2018-08-10T20:27:10.609Z,3.93
2018-08-10T20:29:38.862Z,3.62
2018-08-10T20:32:07.037Z,3.33
2018-08-10T20:34:35.136Z,3.70
2018-08-10T20:37:03.242Z,10.47
2018-08-10T20:39:31.365Z,4.07
2018-08-10T20:41:59.464Z,3.83
2018-08-10T20:44:27.535Z,4.00
2018-08-10T20:46:55.612Z,4.35
2018-08-10T20:49:23.703Z,4.00
2018-08-10T20:51:51.840Z,5.37
2018-08-10T20:54:19.992Z,5.62
2018-08-10T20:56:48.117Z,8.10
2018-08-10T20:59:16.718Z,3.63
2018-08-10T21:01:45.123Z,4.53
2018-08-10T21:04:13.247Z,4.27
2018-08-10T21:06:41.357Z,5.13
2018-08-10T21:09:11.696Z,3.80
2018-08-10T21:11:40.185Z,4.17
2018-08-10T21:14:08.306Z,4.62
2018-08-10T21:16:36.518Z,3.55
2018-08-10T21:19:04.619Z,5.40
2018-08-10T21:21:32.704Z,5.17
2018-08-10T21:24:00.808Z,4.33
2018-08-10T21:26:28.964Z,4.50
2018-08-10T21:28:57.009Z,4.62
2018-08-10T21:31:25.108Z,4.50
2018-08-10T21:33:53.238Z,4.47
2018-08-10T21:36:21.347Z,4.37
2018-08-10T21:38:49.485Z,4.53
2018-08-10T21:41:17.571Z,3.90
2018-08-10T21:43:45.665Z,4.90
2018-08-10T21:46:13.768Z,6.77
2018-08-10T21:48:41.860Z,4.47
2018-08-10T21:51:09.972Z,4.50
2018-08-10T21:53:38.154Z,4.10
2018-08-10T21:56:06.204Z,4.90
2018-08-10T21:58:34.319Z,4.70
2018-08-10T22:01:03.547Z,6.12
2018-08-10T22:03:32.394Z,4.73
2018-08-10T22:06:00.516Z,4.42
2018-08-10T22:08:28.644Z,5.97
2018-08-10T22:10:56.748Z,4.50
2018-08-10T22:13:30.309Z,5.13
2018-08-10T22:16:03.722Z,6.87
2018-08-10T22:18:37.482Z,4.17
2018-08-10T22:21:05.549Z,5.37
2018-08-10T22:23:33.645Z,4.90
2018-08-10T22:26:01.786Z,5.13
2018-08-10T22:28:29.919Z,4.80
2018-08-10T22:30:58.024Z,4.07
2018-08-10T22:33:26.130Z,4.72
2018-08-10T22:35:54.281Z,5.23
2018-08-10T22:38:22.359Z,4.77
2018-08-10T22:40:50.494Z,5.30
2018-08-10T22:43:18.607Z,5.27
2018-08-10T22:45:46.727Z,4.87
2018-08-10T22:48:14.838Z,5.20
2018-08-10T22:50:42.903Z,5.13
2018-08-10T22:53:11.194Z,6.53
2018-08-10T22:55:39.291Z,5.62
2018-08-10T22:58:07.413Z,4.58
2018-08-10T23:00:35.572Z,5.40
2018-08-10T23:03:03.731Z,5.15
2018-08-10T23:05:31.783Z,4.70
2018-08-10T23:07:59.963Z,6.17
2018-08-10T23:10:28.134Z,5.93
2018-08-10T23:12:56.269Z,5.10
2018-08-10T23:15:24.376Z,4.97
2018-08-10T23:17:53.039Z,5.60
2018-08-10T23:20:21.145Z,6.08
2018-08-10T23:22:49.280Z,4.95
2018-08-10T23:25:17.392Z,4.85
2018-08-10T23:27:45.473Z,5.42
2018-08-10T23:30:14.680Z,5.20
2018-08-10T23:32:43.141Z,5.03
2018-08-10T23:35:11.275Z,5.60
2018-08-10T23:37:39.412Z,5.27
2018-08-10T23:40:10.068Z,5.40
2018-08-10T23:42:38.471Z,6.73
2018-08-10T23:45:07.961Z,5.47
2018-08-10T23:47:36.036Z,6.40
2018-08-10T23:50:05.438Z,5.30
2018-08-10T23:52:33.539Z,4.80
2018-08-10T23:55:01.564Z,4.87
2018-08-10T23:57:29.694Z,8.43
2018-08-10T23:59:57.782Z,4.60
